Time;durP1;ratioP1;P1;durP2;ratioP2;P2;SDS_P1;SDS_P2;PMS_P1;PMS_P2;Temp;Humidity;BMP_temperature;BMP_pressure;BME280_temperature;BME280_humidity;BME280_pressure;Samples;Min_cycle;Max_cycle;Signal;HPM_P1;HPM_P2
2023/12/09 00:00:38;;;;;;;14.00;8.32;;;;;;;0.23;76.27;94720.16;5072369;28;20517;-74
2023/12/09 00:03:03;;;;;;;14.32;8.18;;;;;;;0.21;76.57;94720.22;5072400;28;20025;-74
2023/12/09 00:05:29;;;;;;;15.57;7.93;;;;;;;0.20;76.08;94717.75;5088158;28;20025;-74
2023/12/09 00:07:54;;;;;;;12.32;7.90;;;;;;;0.18;76.52;94729.75;5071095;28;20055;-74
2023/12/09 00:10:19;;;;;;;14.13;8.45;;;;;;;0.06;77.31;94735.41;5070841;28;20020;-74
2023/12/09 00:12:48;;;;;;;14.73;8.20;;;;;;;0.01;78.15;94727.09;5104998;28;20072;-74
2023/12/09 00:15:13;;;;;;;15.30;7.88;;;;;;;0.09;77.41;94714.84;5072652;28;20025;-74
2023/12/09 00:17:39;;;;;;;13.02;7.80;;;;;;;0.26;77.11;94731.97;5070949;28;20036;-74
2023/12/09 00:20:05;;;;;;;14.35;8.52;;;;;;;0.16;76.59;94726.44;5054377;28;20031;-74
2023/12/09 00:22:30;;;;;;;12.75;8.40;;;;;;;0.13;76.69;94719.72;5071003;28;20601;-74
2023/12/09 00:24:56;;;;;;;14.85;8.52;;;;;;;-0.19;78.09;94726.22;5070782;28;20099;-74
2023/12/09 00:27:21;;;;;;;15.25;8.45;;;;;;;-0.24;77.65;94728.16;5070924;28;20043;-74
2023/12/09 00:29:47;;;;;;;14.73;8.63;;;;;;;-0.33;78.34;94726.00;5071759;28;20052;-75
2023/12/09 00:32:12;;;;;;;12.43;7.78;;;;;;;-0.39;77.29;94709.19;5071937;28;20021;-74
2023/12/09 00:34:38;;;;;;;14.80;8.45;;;;;;;-0.40;77.63;94727.13;5070784;28;20036;-74
2023/12/09 00:37:04;;;;;;;14.30;8.25;;;;;;;-0.54;77.91;94720.84;5053908;28;20053;-74
2023/12/09 00:39:30;;;;;;;13.90;8.13;;;;;;;-0.60;77.94;94722.84;5087338;28;20028;-74
2023/12/09 00:41:55;;;;;;;14.18;8.15;;;;;;;-0.82;79.15;94728.81;5070482;28;20184;-74
2023/12/09 00:44:20;;;;;;;14.65;9.10;;;;;;;-0.78;79.50;94724.41;5087392;28;20552;-74
2023/12/09 00:46:47;;;;;;;16.05;8.57;;;;;;;-0.87;79.19;94694.16;5070328;28;20033;-74
2023/12/09 00:49:12;;;;;;;13.35;7.78;;;;;;;-0.52;78.12;94719.06;5053574;28;20037;-74
2023/12/09 00:51:38;;;;;;;12.73;8.00;;;;;;;-0.56;78.35;94717.53;5070278;28;20036;-74
2023/12/09 00:54:03;;;;;;;16.00;8.38;;;;;;;-0.66;78.90;94718.81;5070352;28;20410;-74
2023/12/09 00:56:29;;;;;;;15.27;8.45;;;;;;;-0.73;79.21;94714.84;5087028;28;20052;-74
2023/12/09 00:58:54;;;;;;;13.13;7.40;;;;;;;-0.76;79.38;94730.28;5070010;28;20068;-74
2023/12/09 01:01:19;;;;;;;15.00;8.32;;;;;;;-0.77;78.94;94729.44;5087045;28;20021;-75
2023/12/09 01:03:45;;;;;;;13.77;7.55;;;;;;;-0.82;78.83;94710.13;5053106;28;20058;-74
2023/12/09 01:06:10;;;;;;;12.48;7.28;;;;;;;-0.77;78.62;94720.97;5070061;28;20032;-74
2023/12/09 01:08:36;;;;;;;14.57;7.88;;;;;;;-1.12;79.35;94715.53;5069759;28;20051;-74
2023/12/09 01:11:01;;;;;;;15.50;7.85;;;;;;;-1.03;79.79;94735.59;5087090;28;20041;-74
2023/12/09 01:13:28;;;;;;;16.67;8.80;;;;;;;-0.75;78.97;94742.16;5053153;28;20059;-74
2023/12/09 01:15:54;;;;;;;13.75;8.27;;;;;;;-0.68;78.89;94733.34;5086526;28;20031;-74
2023/12/09 01:18:19;;;;;;;15.00;9.38;;;;;;;-0.63;78.41;94739.09;5069841;28;20032;-74
2023/12/09 01:20:45;;;;;;;15.20;8.95;;;;;;;-0.96;79.06;94734.44;5069813;28;20480;-74
2023/12/09 01:23:10;;;;;;;17.73;9.35;;;;;;;-0.95;79.57;94751.44;5070956;28;20025;-74
2023/12/09 01:25:36;;;;;;;15.95;8.13;;;;;;;-0.88;79.08;94730.78;5070869;28;20474;-74
2023/12/09 01:28:01;;;;;;;12.13;7.65;;;;;;;-0.91;78.95;94719.78;5086552;28;20025;-74
2023/12/09 01:30:26;;;;;;;12.15;7.07;;;;;;;-0.76;79.02;94750.69;5052809;28;20048;-74
2023/12/09 01:32:52;;;;;;;10.45;6.70;;;;;;;-0.95;78.83;94731.03;5069724;28;20040;-76
2023/12/09 01:35:17;;;;;;;12.35;7.78;;;;;;;-0.89;78.82;94742.69;5068801;28;20021;-76
2023/12/09 01:37:43;;;;;;;13.32;7.63;;;;;;;-0.92;79.36;94736.00;5070816;28;20032;-76
2023/12/09 01:40:09;;;;;;;14.93;7.32;;;;;;;-1.02;79.89;94729.59;5069585;28;20028;-74
2023/12/09 01:42:34;;;;;;;14.05;8.25;;;;;;;-1.05;79.36;94723.78;5069473;28;20041;-74
2023/12/09 01:45:00;;;;;;;14.25;8.50;;;;;;;-1.06;79.96;94739.97;5069352;28;20036;-74
2023/12/09 01:47:25;;;;;;;13.52;7.60;;;;;;;-0.97;80.30;94737.91;5069761;28;20086;-74
2023/12/09 01:49:51;;;;;;;11.68;7.45;;;;;;;-1.25;79.60;94697.34;5069480;28;20478;-75
2023/12/09 01:52:16;;;;;;;14.95;8.57;;;;;;;-1.25;80.42;94722.00;5069450;28;20037;-74
2023/12/09 01:54:42;;;;;;;11.52;7.60;;;;;;;-1.03;80.31;94712.63;5069478;28;20119;-74
2023/12/09 01:57:07;;;;;;;11.27;7.07;;;;;;;-1.03;79.48;94716.88;5069318;28;20044;-74
2023/12/09 01:59:32;;;;;;;12.95;7.45;;;;;;;-1.10;79.93;94721.41;5052780;28;20021;-75
2023/12/09 02:01:58;;;;;;;13.40;7.95;;;;;;;-1.04;79.97;94717.78;5052645;28;20545;-74
2023/12/09 02:04:23;;;;;;;11.52;7.35;;;;;;;-1.17;79.77;94717.41;5069364;28;20020;-74
2023/12/09 02:06:49;;;;;;;12.57;7.20;;;;;;;-1.18;80.20;94698.75;5070524;28;20032;-76
2023/12/09 02:09:16;;;;;;;11.95;7.07;;;;;;;-1.44;79.83;94666.63;5086157;28;20028;-75
2023/12/09 02:12:05;;;;;;;12.20;6.82;;;;;;;-1.33;80.59;94704.47;5069115;28;20040;-74
2023/12/09 02:14:40;;;;;;;11.57;6.97;;;;;;;-1.35;80.49;94706.22;5052418;28;20025;-75
2023/12/09 02:17:10;;;;;;;9.77;5.97;;;;;;;-1.30;79.81;94703.50;5070578;28;20112;-75
2023/12/09 02:19:36;;;;;;;10.25;6.38;;;;;;;-1.46;80.49;94703.25;5069349;28;20033;-75
2023/12/09 02:22:03;;;;;;;11.82;6.47;;;;;;;-1.48;80.58;94713.50;5069271;28;20055;-75
2023/12/09 02:24:29;;;;;;;11.65;6.63;;;;;;;-1.55;80.78;94685.78;5069272;28;20039;-75
2023/12/09 02:27:15;;;;;;;10.02;6.20;;;;;;;-1.28;80.37;94711.91;5069143;28;20032;-75
2023/12/09 02:29:56;;;;;;;13.18;7.40;;;;;;;-1.35;80.24;94709.59;5082987;28;20102;-75
2023/12/09 02:32:23;;;;;;;13.48;7.28;;;;;;;-1.49;80.92;94709.28;5070369;28;20033;-75
2023/12/09 02:34:49;;;;;;;12.82;6.70;;;;;;;-1.45;80.86;94699.81;5085843;28;20067;-75
2023/12/09 02:37:14;;;;;;;11.23;6.45;;;;;;;-1.58;80.75;94699.47;5068887;28;20060;-74
2023/12/09 02:39:39;;;;;;;10.70;6.72;;;;;;;-1.51;81.08;94702.59;5069075;28;20082;-75
2023/12/09 02:42:05;;;;;;;11.35;5.82;;;;;;;-1.47;81.10;94707.53;5052246;28;20522;-74
2023/12/09 02:44:30;;;;;;;11.68;6.55;;;;;;;-1.50;80.83;94700.00;5085645;28;20079;-75
2023/12/09 02:46:56;;;;;;;13.85;6.80;;;;;;;-1.51;80.55;94688.13;5070215;28;20411;-75
2023/12/09 02:49:22;;;;;;;11.70;6.40;;;;;;;-1.54;80.65;94685.69;5072375;28;20085;-74
2023/12/09 02:51:48;;;;;;;10.57;6.25;;;;;;;-1.42;80.58;94709.88;5072503;28;20510;-75
2023/12/09 02:54:13;;;;;;;11.38;6.30;;;;;;;-1.60;80.80;94713.97;5089355;28;20039;-75
2023/12/09 02:56:39;;;;;;;11.18;6.25;;;;;;;-1.51;80.04;94695.78;5073693;28;20490;-75
2023/12/09 02:59:04;;;;;;;8.80;6.00;;;;;;;-1.50;80.20;94707.66;5089145;28;20029;-75
2023/12/09 03:01:29;;;;;;;9.27;5.57;;;;;;;-1.52;80.18;94706.88;5055522;28;20086;-74
2023/12/09 03:03:55;;;;;;;10.32;6.28;;;;;;;-1.58;80.10;94699.47;5073626;28;20033;-75
2023/12/09 03:06:20;;;;;;;11.27;6.57;;;;;;;-1.58;80.25;94694.38;5055583;28;20036;-75
2023/12/09 03:08:46;;;;;;;12.05;6.47;;;;;;;-1.59;80.47;94688.44;5072027;28;20024;-75
2023/12/09 03:11:11;;;;;;;11.55;6.57;;;;;;;-1.48;80.09;94693.09;5072165;28;20032;-75
2023/12/09 03:13:36;;;;;;;13.38;6.40;;;;;;;-1.58;80.22;94692.63;5071857;28;20029;-75
2023/12/09 03:16:02;;;;;;;10.25;5.45;;;;;;;-1.56;80.15;94695.13;5088979;28;20036;-74
2023/12/09 03:18:27;;;;;;;15.60;8.35;;;;;;;-1.60;80.67;94691.84;5072048;28;20109;-75
2023/12/09 03:20:53;;;;;;;11.93;6.55;;;;;;;-1.64;80.49;94705.63;5071970;28;20051;-75
2023/12/09 03:23:18;;;;;;;10.80;6.72;;;;;;;-1.63;80.44;94706.44;5055176;28;20025;-75
2023/12/09 03:25:43;;;;;;;12.15;5.75;;;;;;;-1.58;80.26;94712.19;5073067;28;20110;-75
2023/12/09 03:28:09;;;;;;;9.77;5.95;;;;;;;-1.62;80.38;94708.09;5071715;28;20487;-75
2023/12/09 03:30:34;;;;;;;10.93;6.43;;;;;;;-1.55;80.29;94718.91;5054972;28;20052;-75
2023/12/09 03:33:00;;;;;;;9.75;6.07;;;;;;;-1.73;80.40;94689.81;5073024;28;20025;-75
2023/12/09 03:35:25;;;;;;;11.98;5.95;;;;;;;-1.72;80.46;94701.69;5088459;28;20115;-75
2023/12/09 03:37:51;;;;;;;9.50;6.13;;;;;;;-1.74;80.46;94706.00;5071727;28;20414;-75
2023/12/09 03:40:16;;;;;;;9.48;5.63;;;;;;;-1.75;80.80;94709.44;5055102;28;20039;-75
2023/12/09 03:42:41;;;;;;;7.95;5.30;;;;;;;-1.66;80.87;94709.09;5072783;28;20422;-75
2023/12/09 03:45:07;;;;;;;9.13;5.57;;;;;;;-1.62;79.93;94705.53;5088555;28;20398;-75
2023/12/09 03:47:32;;;;;;;11.88;5.63;;;;;;;-1.62;80.10;94710.63;5088539;28;20048;-75
2023/12/09 03:49:58;;;;;;;7.95;4.93;;;;;;;-1.70;80.77;94705.84;5088395;28;20521;-75
2023/12/09 03:52:23;;;;;;;9.63;5.55;;;;;;;-1.62;80.57;94719.09;5088219;28;20039;-74
2023/12/09 03:54:49;;;;;;;13.48;7.38;;;;;;;-1.58;80.38;94709.66;5071450;28;20025;-75
2023/12/09 03:57:14;;;;;;;14.38;7.60;;;;;;;-1.66;80.44;94716.75;5054658;28;20530;-75
2023/12/09 03:59:40;;;;;;;10.82;6.97;;;;;;;-1.79;81.01;94706.16;5070734;28;20060;-75
2023/12/09 04:02:06;;;;;;;8.88;5.47;;;;;;;-1.59;80.83;94719.00;5071214;28;20040;-75
2023/12/09 04:04:31;;;;;;;10.65;6.20;;;;;;;-1.71;80.62;94708.44;5071192;28;20498;-75
2023/12/09 04:06:56;;;;;;;10.32;5.55;;;;;;;-1.60;80.25;94711.41;5054335;28;20021;-74
2023/12/09 04:09:22;;;;;;;10.18;6.20;;;;;;;-1.63;80.18;94716.63;5071011;28;20099;-75
2023/12/09 04:11:48;;;;;;;11.95;6.45;;;;;;;-1.71;80.49;94728.81;5071006;28;20032;-75
2023/12/09 04:14:13;;;;;;;15.73;8.05;;;;;;;-1.76;80.51;94730.69;5087784;28;20128;-75
2023/12/09 04:16:42;;;;;;;13.07;6.95;;;;;;;-1.79;80.60;94731.63;5070966;28;20032;-75
2023/12/09 04:19:07;;;;;;;12.20;5.95;;;;;;;-1.86;80.64;94725.94;5070882;28;20032;-74
2023/12/09 04:21:33;;;;;;;8.80;5.82;;;;;;;-1.72;80.88;94734.81;5070695;28;20040;-75
2023/12/09 04:23:58;;;;;;;10.73;5.72;;;;;;;-1.86;80.87;94728.47;5070620;28;20032;-74
2023/12/09 04:26:24;;;;;;;9.82;6.30;;;;;;;-1.76;80.43;94734.06;5070793;28;20043;-75
2023/12/09 04:28:50;;;;;;;10.20;5.55;;;;;;;-1.83;81.40;94733.47;5070297;28;20040;-74
2023/12/09 04:31:15;;;;;;;7.68;5.00;;;;;;;-1.87;81.19;94719.16;5070501;28;20037;-74
2023/12/09 04:33:44;;;;;;;9.57;5.45;;;;;;;-1.84;80.61;94728.41;5070428;28;20036;-74
2023/12/09 04:36:10;;;;;;;7.95;5.25;;;;;;;-1.75;80.46;94714.53;5070569;28;20452;-75
2023/12/09 04:38:35;;;;;;;10.52;5.55;;;;;;;-1.95;80.94;94713.53;5071619;28;20087;-74
2023/12/09 04:41:01;;;;;;;11.63;5.50;;;;;;;-1.77;80.17;94723.94;5070404;28;20029;-75
2023/12/09 04:43:27;;;;;;;7.78;5.25;;;;;;;-1.78;80.24;94727.34;5087123;28;20043;-75
2023/12/09 04:45:52;;;;;;;9.40;5.57;;;;;;;-1.93;80.59;94719.38;5071518;28;20036;-75
2023/12/09 04:48:18;;;;;;;9.07;5.50;;;;;;;-1.96;81.27;94739.88;5070210;28;20486;-75
2023/12/09 04:50:44;;;;;;;11.10;5.45;;;;;;;-1.88;80.40;94734.50;5070192;28;20037;-75
2023/12/09 04:53:09;;;;;;;9.32;6.00;;;;;;;-1.82;80.60;94734.28;5071367;28;20028;-74
2023/12/09 04:55:35;;;;;;;9.25;5.57;;;;;;;-1.87;80.66;94718.34;5070150;28;20086;-74
2023/12/09 04:58:00;;;;;;;8.50;5.07;;;;;;;-1.84;80.32;94734.38;5070169;28;20028;-75
2023/12/09 05:00:26;;;;;;;9.07;5.47;;;;;;;-2.01;80.52;94736.66;5070057;28;20021;-75
2023/12/09 05:02:52;;;;;;;10.18;5.50;;;;;;;-1.85;80.14;94727.59;5069992;28;20032;-75
2023/12/09 05:05:18;;;;;;;10.57;6.20;;;;;;;-1.92;80.44;94751.63;5086702;28;20407;-75
2023/12/09 05:07:43;;;;;;;9.10;5.32;;;;;;;-1.98;80.57;94739.09;5069921;28;20033;-75
2023/12/09 05:10:12;;;;;;;8.98;5.63;;;;;;;-2.15;80.98;94744.78;5086045;28;20031;-75
2023/12/09 05:12:37;;;;;;;10.43;6.00;;;;;;;-1.81;80.45;94763.97;5071055;28;20032;-75
2023/12/09 05:15:03;;;;;;;10.30;6.65;;;;;;;-1.77;80.00;94754.50;5086863;28;20029;-75
2023/12/09 05:17:29;;;;;;;10.25;6.20;;;;;;;-1.92;80.13;94768.59;5069720;28;20481;-75
2023/12/09 05:19:54;;;;;;;9.63;5.85;;;;;;;-1.97;80.18;94763.69;5069945;28;20028;-75
2023/12/09 05:22:21;;;;;;;11.88;6.07;;;;;;;-2.02;80.21;94763.00;5069774;28;20037;-75
2023/12/09 05:24:47;;;;;;;9.48;6.03;;;;;;;-1.95;80.32;94782.28;5103600;28;20031;-75
2023/12/09 05:27:12;;;;;;;11.55;6.43;;;;;;;-2.20;80.56;94748.34;5086551;28;20060;-75
2023/12/09 05:29:38;;;;;;;12.20;6.40;;;;;;;-1.89;80.08;94787.16;5052600;28;20419;-75
2023/12/09 05:32:04;;;;;;;9.82;6.18;;;;;;;-1.82;80.94;94788.59;5086469;28;20032;-75
2023/12/09 05:34:29;;;;;;;10.82;6.30;;;;;;;-1.96;80.42;94772.97;5069665;28;20567;-75
2023/12/09 05:36:55;;;;;;;11.45;6.88;;;;;;;-1.69;80.37;94788.19;5069655;28;20040;-75
2023/12/09 05:39:20;;;;;;;9.40;5.57;;;;;;;-1.84;80.86;94779.34;5069487;28;20029;-75
2023/12/09 05:41:46;;;;;;;9.45;5.70;;;;;;;-1.80;80.93;94780.91;5070802;28;20056;-75
2023/12/09 05:44:11;;;;;;;9.95;5.45;;;;;;;-1.65;80.71;94782.91;5086608;28;20028;-75
2023/12/09 05:46:37;;;;;;;9.13;5.72;;;;;;;-1.71;80.71;94795.03;5070114;28;20033;-75
2023/12/09 05:49:02;;;;;;;9.50;5.47;;;;;;;-1.70;81.52;94794.16;5070942;28;20108;-75
2023/12/09 05:51:28;;;;;;;9.23;5.75;;;;;;;-1.78;81.70;94779.16;5070886;28;20066;-75
2023/12/09 05:53:53;;;;;;;10.13;5.78;;;;;;;-1.50;80.99;94789.19;5069972;28;20027;-75
2023/12/09 05:56:19;;;;;;;9.32;5.63;;;;;;;-1.55;80.97;94793.63;5053230;28;20037;-74
2023/12/09 05:58:44;;;;;;;8.20;5.20;;;;;;;-1.43;80.97;94795.69;5052866;28;20025;-74
2023/12/09 06:01:10;;;;;;;8.60;5.70;;;;;;;-1.29;80.55;94794.38;5069760;28;20052;-74
2023/12/09 06:03:35;;;;;;;10.23;6.05;;;;;;;-1.55;80.15;94790.25;5069545;28;20025;-75
2023/12/09 06:06:01;;;;;;;11.18;5.53;;;;;;;-1.15;79.26;94802.34;5086522;28;20450;-75
2023/12/09 06:08:26;;;;;;;8.15;5.72;;;;;;;-1.13;79.65;94798.84;5069170;28;20090;-75
2023/12/09 06:10:52;;;;;;;9.05;5.60;;;;;;;-0.88;79.08;94797.09;5103002;28;20438;-75
2023/12/09 06:13:17;;;;;;;9.38;5.60;;;;;;;-0.86;78.43;94796.16;5070483;28;20025;-75
2023/12/09 06:15:43;;;;;;;8.07;4.60;;;;;;;-0.96;78.86;94785.44;5086063;28;20110;-75
2023/12/09 06:18:09;;;;;;;9.70;5.38;;;;;;;-0.98;79.43;94787.22;5086005;28;20095;-75
2023/12/09 06:20:34;;;;;;;9.00;5.53;;;;;;;-0.66;78.65;94803.03;5069186;28;20040;-75
2023/12/09 06:23:00;;;;;;;8.85;6.00;;;;;;;-0.62;78.10;94808.81;5072416;28;20031;-75
2023/12/09 06:25:25;;;;;;;9.20;6.20;;;;;;;-0.64;77.69;94796.13;5073166;28;20028;-75
2023/12/09 06:27:51;;;;;;;7.60;5.18;;;;;;;-0.59;78.56;94796.75;5089961;28;20036;-75
2023/12/09 06:30:16;;;;;;;10.25;6.00;;;;;;;-0.69;78.97;94798.88;5072796;28;20057;-75
2023/12/09 06:32:43;;;;;;;8.85;5.35;;;;;;;-0.71;79.41;94802.38;5106712;28;20039;-75
2023/12/09 06:35:08;;;;;;;9.00;5.75;;;;;;;-0.65;78.53;94791.09;5072957;28;20063;-75
2023/12/09 06:37:34;;;;;;;12.25;6.72;;;;;;;-0.55;79.20;94800.88;5072790;28;20024;-75
2023/12/09 06:39:59;;;;;;;8.65;5.70;;;;;;;-0.48;78.24;94807.38;5072812;28;20063;-75
2023/12/09 06:42:25;;;;;;;10.23;6.22;;;;;;;-0.47;78.78;94808.22;5072722;28;20118;-74
2023/12/09 06:44:50;;;;;;;8.32;6.07;;;;;;;-0.29;78.34;94802.38;5072785;28;20028;-75
2023/12/09 06:47:16;;;;;;;8.05;5.05;;;;;;;-0.22;78.03;94810.63;5106417;28;20036;-74
2023/12/09 06:49:41;;;;;;;9.07;5.43;;;;;;;-0.27;78.71;94815.09;5073572;28;20426;-75
2023/12/09 06:52:07;;;;;;;8.50;5.72;;;;;;;-0.05;78.00;94808.19;5074276;28;20059;-74
2023/12/09 06:54:32;;;;;;;8.00;5.28;;;;;;;-0.02;77.65;94817.47;5089856;28;20294;-75
2023/12/09 06:56:58;;;;;;;9.13;5.38;;;;;;;-0.05;77.58;94815.88;5072484;28;20033;-75
2023/12/09 06:59:24;;;;;;;11.43;6.13;;;;;;;-0.20;78.00;94800.34;5106806;28;20025;-75
2023/12/09 07:01:49;;;;;;;9.23;5.93;;;;;;;-0.05;77.71;94809.94;5072683;28;20422;-75
2023/12/09 07:04:15;;;;;;;9.25;5.50;;;;;;;0.10;77.38;94832.28;5089312;28;20535;-74
2023/12/09 07:06:41;;;;;;;9.85;5.78;;;;;;;0.04;76.55;94804.44;5073511;28;20028;-75
2023/12/09 07:09:07;;;;;;;8.73;5.53;;;;;;;0.31;76.27;94832.28;5088843;28;20509;-75
2023/12/09 07:11:33;;;;;;;9.77;5.53;;;;;;;0.29;75.46;94832.31;5088789;28;20113;-74
2023/12/09 07:13:59;;;;;;;9.00;5.55;;;;;;;0.13;76.47;94824.47;5072535;28;20410;-75
2023/12/09 07:16:24;;;;;;;9.15;5.35;;;;;;;0.39;75.35;94841.28;5055328;28;20024;-75
2023/12/09 07:18:51;;;;;;;9.48;5.78;;;;;;;0.19;75.38;94829.31;5071931;28;20027;-75
2023/12/09 07:21:16;;;;;;;8.57;5.30;;;;;;;0.04;76.20;94801.06;5071995;28;20028;-75
2023/12/09 07:23:42;;;;;;;8.50;5.15;;;;;;;0.44;75.79;94841.88;5071853;28;20028;-75
2023/12/09 07:26:08;;;;;;;9.10;6.20;;;;;;;0.61;75.51;94835.22;5072037;28;20115;-75
2023/12/09 07:28:33;;;;;;;7.90;5.20;;;;;;;0.74;75.06;94848.31;5073120;28;20124;-75
2023/12/09 07:30:59;;;;;;;10.90;6.85;;;;;;;0.70;75.24;94850.19;5071838;28;20048;-75
2023/12/09 07:33:25;;;;;;;9.88;6.10;;;;;;;0.84;73.57;94849.56;5070752;28;20031;-75
2023/12/09 07:35:50;;;;;;;9.88;6.78;;;;;;;0.89;73.48;94850.19;5054916;28;20037;-75
2023/12/09 07:38:16;;;;;;;8.60;5.88;;;;;;;0.55;73.80;94802.25;5088557;28;20028;-75
2023/12/09 07:40:41;;;;;;;10.05;6.07;;;;;;;0.75;72.22;94835.44;5055119;28;20036;-75
2023/12/09 07:43:07;;;;;;;7.75;5.40;;;;;;;0.94;72.96;94849.97;5072855;28;20032;-75
2023/12/09 07:45:33;;;;;;;10.73;5.82;;;;;;;0.43;73.79;94817.22;5071520;28;20499;-75
2023/12/09 07:47:58;;;;;;;12.70;7.38;;;;;;;0.53;74.79;94837.28;5088336;28;20043;-75
2023/12/09 07:50:24;;;;;;;10.80;6.63;;;;;;;0.99;73.78;94850.59;5054792;28;20039;-75
2023/12/09 07:52:49;;;;;;;11.05;6.63;;;;;;;1.09;73.48;94847.56;5088319;28;20028;-75
2023/12/09 07:55:16;;;;;;;8.18;6.10;;;;;;;1.23;73.02;94854.63;5071492;28;20516;-75
2023/12/09 07:57:41;;;;;;;9.30;5.93;;;;;;;1.20;71.26;94836.84;5071366;28;20028;-75
2023/12/09 08:00:07;;;;;;;9.45;6.28;;;;;;;1.45;70.61;94849.34;5054650;28;20036;-75
2023/12/09 08:02:33;;;;;;;9.15;6.30;;;;;;;1.43;69.36;94842.63;5071055;28;20537;-75
2023/12/09 08:04:58;;;;;;;8.43;6.18;;;;;;;1.54;70.15;94860.88;5054442;28;20028;-75
2023/12/09 08:07:23;;;;;;;10.18;6.65;;;;;;;1.42;69.62;94843.53;5071139;28;20040;-75
2023/12/09 08:09:49;;;;;;;11.93;7.47;;;;;;;1.68;70.22;94871.31;5070811;28;20478;-75
2023/12/09 08:12:14;;;;;;;14.13;9.07;;;;;;;1.54;70.08;94859.16;5072323;28;20024;-75
2023/12/09 08:14:40;;;;;;;19.23;13.82;;;;;;;1.56;70.67;94877.84;5071101;28;20470;-75
2023/12/09 08:17:05;;;;;;;26.92;19.77;;;;;;;1.41;71.83;94880.28;5070957;28;20483;-75
2023/12/09 08:19:30;;;;;;;26.35;19.67;;;;;;;1.61;71.04;94861.41;5072283;28;20044;-75
2023/12/09 08:21:56;;;;;;;24.40;17.55;;;;;;;1.76;70.36;94882.03;5054168;28;20025;-75
2023/12/09 08:24:21;;;;;;;20.50;11.90;;;;;;;1.85;70.33;94874.81;5071899;28;20504;-75
2023/12/09 08:26:47;;;;;;;14.60;9.48;;;;;;;1.83;69.85;94876.59;5070634;28;20037;-75
2023/12/09 08:29:14;;;;;;;14.68;9.00;;;;;;;1.50;69.93;94869.59;5070403;28;20045;-75
2023/12/09 08:31:40;;;;;;;15.95;9.93;;;;;;;1.82;67.88;94867.28;5070600;28;20082;-75
2023/12/09 08:34:05;;;;;;;12.95;8.32;;;;;;;1.93;66.39;94860.72;5070610;28;20123;-75
2023/12/09 08:36:31;;;;;;;16.13;9.95;;;;;;;1.93;67.11;94868.41;5070397;28;20552;-75
2023/12/09 08:38:56;;;;;;;14.77;9.70;;;;;;;1.62;68.81;94875.91;5070519;28;20081;-75
2023/12/09 08:41:22;;;;;;;14.95;10.00;;;;;;;1.97;68.55;94876.78;5070441;28;20032;-75
2023/12/09 08:43:51;;;;;;;17.35;10.88;;;;;;;1.81;69.58;94871.53;5053851;28;20127;-75
2023/12/09 08:46:16;;;;;;;15.43;10.75;;;;;;;2.04;69.88;94867.91;5086717;28;20040;-75
2023/12/09 08:48:42;;;;;;;15.10;10.18;;;;;;;2.18;69.03;94873.16;5070096;28;20040;-76
2023/12/09 08:51:07;;;;;;;15.57;9.98;;;;;;;1.96;68.42;94834.94;5053634;28;20028;-76
2023/12/09 08:53:33;;;;;;;15.73;9.88;;;;;;;2.09;69.02;94867.66;5070177;28;20475;-75
2023/12/09 08:55:58;;;;;;;16.77;10.80;;;;;;;2.23;67.65;94876.34;5086967;28;20430;-76
2023/12/09 08:58:24;;;;;;;14.15;9.40;;;;;;;2.42;66.86;94867.72;5070039;28;20032;-75
2023/12/09 09:00:49;;;;;;;14.27;8.50;;;;;;;2.37;68.26;94872.28;5103824;28;20032;-75
2023/12/09 09:03:14;;;;;;;13.90;8.05;;;;;;;2.35;68.46;94876.63;5053355;28;20025;-75
2023/12/09 09:05:40;;;;;;;9.82;7.70;;;;;;;2.41;65.81;94876.34;5071192;28;20036;-75
2023/12/09 09:08:05;;;;;;;11.82;7.97;;;;;;;2.38;66.08;94872.19;5070063;28;20029;-75
2023/12/09 09:10:31;;;;;;;11.38;7.50;;;;;;;2.37;66.99;94864.59;5086991;28;20034;-75
2023/12/09 09:12:56;;;;;;;7.93;4.90;;;;;;;2.27;66.65;94860.81;5086864;28;20036;-75
2023/12/09 09:15:22;;;;;;;9.52;6.47;;;;;;;2.38;64.26;94853.41;5070076;28;20475;-75
2023/12/09 09:17:47;;;;;;;10.85;6.55;;;;;;;2.43;64.92;94861.72;5086623;28;20066;-75
2023/12/09 09:20:12;;;;;;;10.93;7.18;;;;;;;2.47;65.53;94855.50;5070023;28;20493;-75
2023/12/09 09:22:38;;;;;;;12.88;8.80;;;;;;;2.41;66.27;94856.63;5071010;28;20028;-75
2023/12/09 09:25:04;;;;;;;18.55;10.73;;;;;;;2.41;66.45;94851.50;5086782;28;20388;-75
2023/12/09 09:27:29;;;;;;;14.98;10.27;;;;;;;2.49;65.58;94834.94;5086424;28;20479;-75
2023/12/09 09:29:55;;;;;;;12.27;8.27;;;;;;;2.57;65.60;94836.19;5086418;28;20539;-75
2023/12/09 09:32:23;;;;;;;11.13;6.97;;;;;;;2.53;65.55;94823.59;5069784;28;20079;-75
2023/12/09 09:34:49;;;;;;;10.65;6.43;;;;;;;2.65;65.20;94823.81;5086040;28;20158;-75
2023/12/09 09:37:14;;;;;;;12.38;8.50;;;;;;;2.51;65.72;94836.50;5070979;28;20032;-75
2023/12/09 09:39:40;;;;;;;12.80;8.57;;;;;;;2.47;65.48;94820.44;5069688;28;20035;-75
2023/12/09 09:42:05;;;;;;;16.52;9.48;;;;;;;2.65;64.91;94834.06;5069715;28;20032;-76
2023/12/09 09:44:33;;;;;;;7.72;5.25;;;;;;;2.59;63.48;94823.28;5070949;28;20476;-75
2023/12/09 09:46:59;;;;;;;7.20;4.85;;;;;;;2.57;64.48;94828.50;5069529;28;20028;-75
2023/12/09 09:49:25;;;;;;;7.90;4.88;;;;;;;2.46;64.98;94828.22;5069501;28;20055;-75
2023/12/09 09:51:53;;;;;;;8.75;5.80;;;;;;;2.59;63.81;94831.81;5052795;28;20547;-75
2023/12/09 09:54:24;;;;;;;12.90;7.78;;;;;;;2.47;63.82;94817.03;5069655;28;20060;-75
2023/12/09 09:56:50;;;;;;;10.80;6.72;;;;;;;2.68;63.52;94808.25;5070748;28;20035;-75
2023/12/09 09:59:17;;;;;;;16.35;11.32;;;;;;;2.69;63.79;94815.03;5073722;28;20025;-75
2023/12/09 10:01:44;;;;;;;19.08;13.88;;;;;;;2.74;64.83;94814.78;5073668;28;20076;-75
2023/12/09 10:04:09;;;;;;;16.65;11.73;;;;;;;2.63;65.03;94828.16;5107417;28;20032;-75
2023/12/09 10:06:35;;;;;;;19.52;15.13;;;;;;;2.55;65.31;94826.91;5074783;28;20406;-75
2023/12/09 10:09:00;;;;;;;11.90;9.38;;;;;;;2.71;64.54;94821.84;5107139;28;20402;-75
2023/12/09 10:11:26;;;;;;;12.75;9.07;;;;;;;2.45;65.55;94811.16;5073313;28;20036;-75
2023/12/09 10:13:51;;;;;;;12.43;9.70;;;;;;;2.62;64.82;94828.28;5090415;28;20078;-75
2023/12/09 10:16:17;;;;;;;10.13;7.45;;;;;;;2.65;65.01;94825.53;5073482;28;20033;-75
2023/12/09 10:18:46;;;;;;;11.15;7.68;;;;;;;2.59;64.54;94816.44;5090271;28;20509;-75
2023/12/09 10:21:12;;;;;;;10.80;7.05;;;;;;;2.66;65.11;94832.31;5073193;28;20029;-75
2023/12/09 10:23:37;;;;;;;12.25;7.80;;;;;;;2.68;64.22;94823.63;5072949;28;20509;-75
2023/12/09 10:26:03;;;;;;;9.77;7.68;;;;;;;2.70;64.83;94823.53;5073097;28;20048;-75
2023/12/09 10:28:29;;;;;;;9.68;7.03;;;;;;;2.64;63.75;94811.88;5090103;28;20064;-75
2023/12/09 10:30:55;;;;;;;13.43;8.27;;;;;;;2.66;65.00;94814.38;5089658;28;20048;-75
2023/12/09 10:33:21;;;;;;;13.30;9.57;;;;;;;2.56;65.67;94810.59;5056226;28;20082;-75
2023/12/09 10:35:46;;;;;;;12.52;8.73;;;;;;;2.64;65.39;94826.44;5072869;28;20033;-75
2023/12/09 10:38:12;;;;;;;17.83;9.30;;;;;;;2.55;64.51;94806.41;5073951;28;20418;-75
2023/12/09 10:40:38;;;;;;;11.80;8.35;;;;;;;2.65;64.08;94797.31;5055899;28;20422;-75
2023/12/09 10:43:03;;;;;;;10.23;7.43;;;;;;;2.74;64.59;94814.78;5089617;28;20020;-75
2023/12/09 10:45:29;;;;;;;13.15;10.07;;;;;;;2.88;64.46;94808.94;5089331;28;20449;-75
2023/12/09 10:47:54;;;;;;;12.73;8.93;;;;;;;2.85;64.23;94798.84;5072676;28;20082;-75
2023/12/09 10:50:20;;;;;;;18.88;11.80;;;;;;;2.67;65.16;94808.31;5056019;28;20036;-75
2023/12/09 10:52:45;;;;;;;15.48;8.95;;;;;;;2.70;64.89;94800.44;5072596;28;20495;-75
2023/12/09 10:55:10;;;;;;;15.63;10.60;;;;;;;2.80;63.54;94799.06;5089482;28;20407;-75
2023/12/09 10:57:36;;;;;;;13.75;9.15;;;;;;;2.84;64.10;94790.31;5072391;28;20435;-75
2023/12/09 11:00:09;;;;;;;9.77;7.38;;;;;;;2.98;62.43;94781.03;5072158;28;20028;-75
2023/12/09 11:02:35;;;;;;;10.68;7.82;;;;;;;2.96;62.05;94793.16;5088348;28;20185;-75
2023/12/09 11:05:01;;;;;;;11.77;8.68;;;;;;;3.04;62.61;94803.84;5073837;28;20099;-75
2023/12/09 11:07:28;;;;;;;10.50;7.35;;;;;;;3.17;62.84;94801.41;5088721;28;20494;-75
2023/12/09 11:09:54;;;;;;;10.02;7.03;;;;;;;3.13;63.48;94801.59;5054948;28;20039;-75
2023/12/09 11:12:27;;;;;;;32.92;24.08;;;;;;;2.60;65.52;94797.56;5055467;28;20021;-75
2023/12/09 11:14:52;;;;;;;10.82;7.45;;;;;;;2.83;62.60;94786.09;5055645;28;20031;-75
2023/12/09 11:17:35;;;;;;;9.88;7.00;;;;;;;2.80;63.63;94775.97;5073411;28;20037;-75
2023/12/09 11:20:09;;;;;;;9.90;7.20;;;;;;;2.69;63.23;94747.50;5072053;28;20512;-75
2023/12/09 11:22:38;;;;;;;11.45;7.22;;;;;;;2.72;62.61;94779.88;5088245;28;20075;-75
2023/12/09 11:25:04;;;;;;;17.70;10.27;;;;;;;2.67;63.21;94790.34;5072074;28;20081;-75